sensor_id;sensor_type;location;lat;lon;timestamp;temperature;humidity
71188;DHT22;58893;53.130;8.158;2022-10-30T00:00:02;17.30;88.00
71188;DHT22;58893;53.130;8.158;2022-10-30T00:02:27;17.20;88.00
71188;DHT22;58893;53.130;8.158;2022-10-30T00:04:53;17.20;88.10
71188;DHT22;58893;53.130;8.158;2022-10-30T00:07:19;17.20;88.00
71188;DHT22;58893;53.130;8.158;2022-10-30T00:09:44;17.20;88.00
71188;DHT22;58893;53.130;8.158;2022-10-30T00:12:10;17.20;87.90
71188;DHT22;58893;53.130;8.158;2022-10-30T00:14:35;17.20;87.90
71188;DHT22;58893;53.130;8.158;2022-10-30T00:17:01;17.20;87.90
71188;DHT22;58893;53.130;8.158;2022-10-30T00:19:26;17.10;87.50
71188;DHT22;58893;53.130;8.158;2022-10-30T00:21:52;17.10;87.00
71188;DHT22;58893;53.130;8.158;2022-10-30T00:24:18;17.10;86.90
71188;DHT22;58893;53.130;8.158;2022-10-30T00:26:43;17.10;87.20
71188;DHT22;58893;53.130;8.158;2022-10-30T00:29:09;17.10;86.30
71188;DHT22;58893;53.130;8.158;2022-10-30T00:31:34;17.00;86.10
71188;DHT22;58893;53.130;8.158;2022-10-30T00:34:00;17.00;85.90
71188;DHT22;58893;53.130;8.158;2022-10-30T00:36:25;17.00;85.80
71188;DHT22;58893;53.130;8.158;2022-10-30T00:38:51;17.00;86.40
71188;DHT22;58893;53.130;8.158;2022-10-30T00:41:20;16.90;85.70
71188;DHT22;58893;53.130;8.158;2022-10-30T00:43:47;16.90;85.50
71188;DHT22;58893;53.130;8.158;2022-10-30T00:49:03;16.80;85.10
71188;DHT22;58893;53.130;8.158;2022-10-30T00:51:31;16.80;85.00
71188;DHT22;58893;53.130;8.158;2022-10-30T00:53:59;16.80;85.10
71188;DHT22;58893;53.130;8.158;2022-10-30T00:56:27;16.80;85.20
71188;DHT22;58893;53.130;8.158;2022-10-30T00:59:05;16.70;85.20
71188;DHT22;58893;53.130;8.158;2022-10-30T01:01:35;16.70;85.30
71188;DHT22;58893;53.130;8.158;2022-10-30T01:04:02;16.70;85.40
71188;DHT22;58893;53.130;8.158;2022-10-30T01:06:32;16.70;85.40
71188;DHT22;58893;53.130;8.158;2022-10-30T01:08:58;16.70;85.50
71188;DHT22;58893;53.130;8.158;2022-10-30T01:11:24;16.70;85.50
71188;DHT22;58893;53.130;8.158;2022-10-30T01:13:51;16.70;85.50
71188;DHT22;58893;53.130;8.158;2022-10-30T01:27:07;16.60;85.80
71188;DHT22;58893;53.130;8.158;2022-10-30T01:29:49;16.60;85.80
71188;DHT22;58893;53.130;8.158;2022-10-30T01:38:05;16.60;85.50
71188;DHT22;58893;53.130;8.158;2022-10-30T01:40:32;16.60;85.50
71188;DHT22;58893;53.130;8.158;2022-10-30T01:42:58;16.60;85.50
71188;DHT22;58893;53.130;8.158;2022-10-30T01:56:26;16.60;86.30
71188;DHT22;58893;53.130;8.158;2022-10-30T01:59:21;16.60;86.50
71188;DHT22;58893;53.130;8.158;2022-10-30T02:01:48;16.60;86.60
71188;DHT22;58893;53.130;8.158;2022-10-30T02:04:14;16.60;86.60
71188;DHT22;58893;53.130;8.158;2022-10-30T02:06:40;16.60;86.70
71188;DHT22;58893;53.130;8.158;2022-10-30T02:09:06;16.60;86.70
71188;DHT22;58893;53.130;8.158;2022-10-30T02:11:33;16.60;86.90
71188;DHT22;58893;53.130;8.158;2022-10-30T02:14:03;16.60;87.10
71188;DHT22;58893;53.130;8.158;2022-10-30T02:16:29;16.60;87.30
71188;DHT22;58893;53.130;8.158;2022-10-30T02:18:55;16.70;87.70
71188;DHT22;58893;53.130;8.158;2022-10-30T02:21:21;16.70;87.90
71188;DHT22;58893;53.130;8.158;2022-10-30T02:23:47;16.70;88.10
71188;DHT22;58893;53.130;8.158;2022-10-30T02:26:12;16.70;88.30
71188;DHT22;58893;53.130;8.158;2022-10-30T02:28:38;16.70;88.30
71188;DHT22;58893;53.130;8.158;2022-10-30T02:31:03;16.70;88.40
71188;DHT22;58893;53.130;8.158;2022-10-30T02:33:29;16.80;88.50
71188;DHT22;58893;53.130;8.158;2022-10-30T02:35:55;16.80;88.40
71188;DHT22;58893;53.130;8.158;2022-10-30T02:38:20;16.80;88.30
71188;DHT22;58893;53.130;8.158;2022-10-30T02:40:46;16.80;88.20
71188;DHT22;58893;53.130;8.158;2022-10-30T02:43:12;16.80;88.10
71188;DHT22;58893;53.130;8.158;2022-10-30T02:45:38;16.80;88.00
71188;DHT22;58893;53.130;8.158;2022-10-30T02:48:03;16.80;88.00
71188;DHT22;58893;53.130;8.158;2022-10-30T02:50:29;16.80;87.90
71188;DHT22;58893;53.130;8.158;2022-10-30T02:52:54;16.80;87.80
71188;DHT22;58893;53.130;8.158;2022-10-30T02:55:20;16.80;87.80
71188;DHT22;58893;53.130;8.158;2022-10-30T02:57:45;16.80;87.80
71188;DHT22;58893;53.130;8.158;2022-10-30T03:00:11;16.80;87.80
71188;DHT22;58893;53.130;8.158;2022-10-30T03:02:37;16.80;87.80
71188;DHT22;58893;53.130;8.158;2022-10-30T03:05:03;16.80;87.70
71188;DHT22;58893;53.130;8.158;2022-10-30T03:07:29;16.80;87.80
71188;DHT22;58893;53.130;8.158;2022-10-30T03:09:54;16.80;87.80
71188;DHT22;58893;53.130;8.158;2022-10-30T03:12:21;16.80;87.80
71188;DHT22;58893;53.130;8.158;2022-10-30T03:14:47;16.80;87.80
71188;DHT22;58893;53.130;8.158;2022-10-30T03:17:12;16.80;87.70
71188;DHT22;58893;53.130;8.158;2022-10-30T03:19:38;16.80;87.70
71188;DHT22;58893;53.130;8.158;2022-10-30T03:22:05;16.80;87.80
71188;DHT22;58893;53.130;8.158;2022-10-30T03:24:31;16.80;87.70
71188;DHT22;58893;53.130;8.158;2022-10-30T03:26:57;16.80;87.80
71188;DHT22;58893;53.130;8.158;2022-10-30T03:29:22;16.80;87.70
71188;DHT22;58893;53.130;8.158;2022-10-30T03:31:48;16.80;87.60
71188;DHT22;58893;53.130;8.158;2022-10-30T03:34:13;16.80;87.50
71188;DHT22;58893;53.130;8.158;2022-10-30T03:36:39;16.80;87.50
71188;DHT22;58893;53.130;8.158;2022-10-30T03:39:05;16.80;87.50
71188;DHT22;58893;53.130;8.158;2022-10-30T03:41:30;16.80;87.50
71188;DHT22;58893;53.130;8.158;2022-10-30T03:43:56;16.80;87.50
71188;DHT22;58893;53.130;8.158;2022-10-30T03:46:21;16.80;87.50
71188;DHT22;58893;53.130;8.158;2022-10-30T03:48:50;16.80;87.40
71188;DHT22;58893;53.130;8.158;2022-10-30T03:51:15;16.80;87.40
71188;DHT22;58893;53.130;8.158;2022-10-30T03:53:41;16.80;87.40
71188;DHT22;58893;53.130;8.158;2022-10-30T03:56:08;16.80;87.40
71188;DHT22;58893;53.130;8.158;2022-10-30T03:58:34;16.80;87.50
71188;DHT22;58893;53.130;8.158;2022-10-30T04:01:04;16.80;87.40
71188;DHT22;58893;53.130;8.158;2022-10-30T04:03:30;16.80;87.30
71188;DHT22;58893;53.130;8.158;2022-10-30T04:05:55;16.80;87.20
71188;DHT22;58893;53.130;8.158;2022-10-30T04:08:21;16.80;87.20
71188;DHT22;58893;53.130;8.158;2022-10-30T04:10:47;16.80;87.20
71188;DHT22;58893;53.130;8.158;2022-10-30T04:13:14;16.80;87.10
71188;DHT22;58893;53.130;8.158;2022-10-30T04:15:41;16.80;87.00
71188;DHT22;58893;53.130;8.158;2022-10-30T04:18:11;16.80;86.90
71188;DHT22;58893;53.130;8.158;2022-10-30T04:20:37;16.80;86.80
71188;DHT22;58893;53.130;8.158;2022-10-30T04:23:04;16.80;86.70
71188;DHT22;58893;53.130;8.158;2022-10-30T04:25:30;16.70;86.30
71188;DHT22;58893;53.130;8.158;2022-10-30T04:27:57;16.70;86.10
71188;DHT22;58893;53.130;8.158;2022-10-30T04:30:23;16.70;86.00
71188;DHT22;58893;53.130;8.158;2022-10-30T04:32:56;16.70;85.80
71188;DHT22;58893;53.130;8.158;2022-10-30T04:35:24;16.70;85.70
71188;DHT22;58893;53.130;8.158;2022-10-30T04:40:23;16.60;85.60
71188;DHT22;58893;53.130;8.158;2022-10-30T04:42:49;16.60;85.50
71188;DHT22;58893;53.130;8.158;2022-10-30T04:45:15;16.60;85.40
71188;DHT22;58893;53.130;8.158;2022-10-30T04:47:41;16.50;85.20
71188;DHT22;58893;53.130;8.158;2022-10-30T04:50:07;16.50;85.10
71188;DHT22;58893;53.130;8.158;2022-10-30T04:52:33;16.50;85.10
71188;DHT22;58893;53.130;8.158;2022-10-30T04:54:58;16.50;85.00
71188;DHT22;58893;53.130;8.158;2022-10-30T04:57:24;16.40;84.90
71188;DHT22;58893;53.130;8.158;2022-10-30T04:59:49;16.40;84.90
71188;DHT22;58893;53.130;8.158;2022-10-30T05:02:15;16.40;84.90
71188;DHT22;58893;53.130;8.158;2022-10-30T05:04:43;16.40;84.80
71188;DHT22;58893;53.130;8.158;2022-10-30T05:07:09;16.40;84.70
71188;DHT22;58893;53.130;8.158;2022-10-30T05:09:35;16.30;84.50
71188;DHT22;58893;53.130;8.158;2022-10-30T05:12:01;16.30;84.50
71188;DHT22;58893;53.130;8.158;2022-10-30T05:14:31;16.30;84.60
71188;DHT22;58893;53.130;8.158;2022-10-30T05:16:57;16.30;84.70
71188;DHT22;58893;53.130;8.158;2022-10-30T05:19:23;16.20;84.80
71188;DHT22;58893;53.130;8.158;2022-10-30T05:21:49;16.20;84.90
71188;DHT22;58893;53.130;8.158;2022-10-30T05:24:14;16.20;84.90
71188;DHT22;58893;53.130;8.158;2022-10-30T05:26:40;16.20;85.00
71188;DHT22;58893;53.130;8.158;2022-10-30T05:29:05;16.20;85.30
71188;DHT22;58893;53.130;8.158;2022-10-30T05:31:31;16.20;85.50
71188;DHT22;58893;53.130;8.158;2022-10-30T05:33:57;16.20;85.70
71188;DHT22;58893;53.130;8.158;2022-10-30T05:36:22;16.20;85.90
71188;DHT22;58893;53.130;8.158;2022-10-30T05:38:48;16.20;85.90
71188;DHT22;58893;53.130;8.158;2022-10-30T05:41:14;16.20;86.00
71188;DHT22;58893;53.130;8.158;2022-10-30T05:43:39;16.20;86.00
71188;DHT22;58893;53.130;8.158;2022-10-30T05:46:05;16.20;85.90
71188;DHT22;58893;53.130;8.158;2022-10-30T05:48:30;16.20;85.80
71188;DHT22;58893;53.130;8.158;2022-10-30T05:50:56;16.20;85.80
71188;DHT22;58893;53.130;8.158;2022-10-30T05:53:22;16.20;85.60
71188;DHT22;58893;53.130;8.158;2022-10-30T05:55:48;16.20;85.50
71188;DHT22;58893;53.130;8.158;2022-10-30T05:58:14;16.20;85.40
71188;DHT22;58893;53.130;8.158;2022-10-30T06:00:40;16.20;85.40
71188;DHT22;58893;53.130;8.158;2022-10-30T06:03:10;16.20;86.10
71188;DHT22;58893;53.130;8.158;2022-10-30T06:05:36;16.20;85.40
71188;DHT22;58893;53.130;8.158;2022-10-30T06:08:03;16.20;85.40
71188;DHT22;58893;53.130;8.158;2022-10-30T06:10:30;16.20;85.30
71188;DHT22;58893;53.130;8.158;2022-10-30T06:12:57;16.20;85.30
71188;DHT22;58893;53.130;8.158;2022-10-30T06:15:22;16.20;85.30
71188;DHT22;58893;53.130;8.158;2022-10-30T06:17:48;16.20;85.10
71188;DHT22;58893;53.130;8.158;2022-10-30T06:20:15;16.20;84.70
71188;DHT22;58893;53.130;8.158;2022-10-30T06:22:40;16.10;84.40
71188;DHT22;58893;53.130;8.158;2022-10-30T06:25:06;16.10;84.30
71188;DHT22;58893;53.130;8.158;2022-10-30T06:27:35;16.10;84.30
71188;DHT22;58893;53.130;8.158;2022-10-30T06:30:01;16.10;84.30
71188;DHT22;58893;53.130;8.158;2022-10-30T06:32:26;16.10;84.30
71188;DHT22;58893;53.130;8.158;2022-10-30T06:34:52;16.10;84.40
71188;DHT22;58893;53.130;8.158;2022-10-30T06:37:17;16.00;84.50
71188;DHT22;58893;53.130;8.158;2022-10-30T06:39:43;16.10;84.60
71188;DHT22;58893;53.130;8.158;2022-10-30T06:42:08;16.00;84.60
71188;DHT22;58893;53.130;8.158;2022-10-30T06:44:34;16.00;84.70
71188;DHT22;58893;53.130;8.158;2022-10-30T06:46:59;16.00;84.60
71188;DHT22;58893;53.130;8.158;2022-10-30T06:49:25;16.00;84.70
71188;DHT22;58893;53.130;8.158;2022-10-30T06:51:51;16.00;84.70
71188;DHT22;58893;53.130;8.158;2022-10-30T06:54:16;16.00;84.60
71188;DHT22;58893;53.130;8.158;2022-10-30T06:56:42;16.00;84.50
71188;DHT22;58893;53.130;8.158;2022-10-30T06:59:08;16.00;85.30
71188;DHT22;58893;53.130;8.158;2022-10-30T07:01:34;16.00;84.70
71188;DHT22;58893;53.130;8.158;2022-10-30T07:04:00;16.00;84.80
71188;DHT22;58893;53.130;8.158;2022-10-30T07:06:25;16.00;84.90
71188;DHT22;58893;53.130;8.158;2022-10-30T07:08:51;16.00;85.00
71188;DHT22;58893;53.130;8.158;2022-10-30T07:11:16;16.00;85.20
71188;DHT22;58893;53.130;8.158;2022-10-30T07:13:44;16.00;85.40
71188;DHT22;58893;53.130;8.158;2022-10-30T07:16:10;16.00;85.50
71188;DHT22;58893;53.130;8.158;2022-10-30T07:18:35;16.00;85.50
71188;DHT22;58893;53.130;8.158;2022-10-30T07:21:01;16.00;85.70
71188;DHT22;58893;53.130;8.158;2022-10-30T07:23:26;16.00;85.80
71188;DHT22;58893;53.130;8.158;2022-10-30T07:25:52;16.10;86.00
71188;DHT22;58893;53.130;8.158;2022-10-30T07:28:18;16.10;86.20
71188;DHT22;58893;53.130;8.158;2022-10-30T07:30:43;16.10;86.90
71188;DHT22;58893;53.130;8.158;2022-10-30T07:33:09;16.10;86.40
71188;DHT22;58893;53.130;8.158;2022-10-30T07:35:35;16.10;86.50
71188;DHT22;58893;53.130;8.158;2022-10-30T07:38:02;16.20;86.90
71188;DHT22;58893;53.130;8.158;2022-10-30T07:40:28;16.20;87.10
71188;DHT22;58893;53.130;8.158;2022-10-30T07:42:58;16.20;87.30
71188;DHT22;58893;53.130;8.158;2022-10-30T07:45:24;16.30;87.60
71188;DHT22;58893;53.130;8.158;2022-10-30T07:47:49;16.30;87.80
71188;DHT22;58893;53.130;8.158;2022-10-30T07:50:15;16.40;87.90
71188;DHT22;58893;53.130;8.158;2022-10-30T07:52:40;16.50;88.60
71188;DHT22;58893;53.130;8.158;2022-10-30T07:55:06;16.60;89.00
71188;DHT22;58893;53.130;8.158;2022-10-30T07:57:36;16.70;88.80
71188;DHT22;58893;53.130;8.158;2022-10-30T08:00:10;16.80;88.90
71188;DHT22;58893;53.130;8.158;2022-10-30T08:02:36;16.90;89.00
71188;DHT22;58893;53.130;8.158;2022-10-30T08:05:03;17.10;89.50
71188;DHT22;58893;53.130;8.158;2022-10-30T08:07:32;17.30;89.40
71188;DHT22;58893;53.130;8.158;2022-10-30T08:09:58;17.60;89.80
71188;DHT22;58893;53.130;8.158;2022-10-30T08:12:25;18.00;88.80
71188;DHT22;58893;53.130;8.158;2022-10-30T08:14:52;18.50;85.80
71188;DHT22;58893;53.130;8.158;2022-10-30T08:17:18;18.80;83.00
71188;DHT22;58893;53.130;8.158;2022-10-30T08:19:43;19.00;81.30
71188;DHT22;58893;53.130;8.158;2022-10-30T08:22:12;19.10;80.10
71188;DHT22;58893;53.130;8.158;2022-10-30T08:24:38;19.20;79.30
71188;DHT22;58893;53.130;8.158;2022-10-30T08:27:04;19.20;78.70
71188;DHT22;58893;53.130;8.158;2022-10-30T08:29:30;19.20;78.30
71188;DHT22;58893;53.130;8.158;2022-10-30T08:31:55;19.20;78.00
71188;DHT22;58893;53.130;8.158;2022-10-30T08:34:21;19.20;77.90
71188;DHT22;58893;53.130;8.158;2022-10-30T08:36:51;19.20;77.90
71188;DHT22;58893;53.130;8.158;2022-10-30T08:39:17;19.10;77.80
71188;DHT22;58893;53.130;8.158;2022-10-30T08:41:43;19.10;77.90
71188;DHT22;58893;53.130;8.158;2022-10-30T08:44:09;19.10;78.80
71188;DHT22;58893;53.130;8.158;2022-10-30T08:46:34;19.10;79.10
71188;DHT22;58893;53.130;8.158;2022-10-30T08:49:00;19.10;79.80
71188;DHT22;58893;53.130;8.158;2022-10-30T08:51:26;19.10;80.30
71188;DHT22;58893;53.130;8.158;2022-10-30T08:53:51;19.20;81.20
71188;DHT22;58893;53.130;8.158;2022-10-30T08:56:17;19.20;82.40
71188;DHT22;58893;53.130;8.158;2022-10-30T08:58:43;19.20;82.40
71188;DHT22;58893;53.130;8.158;2022-10-30T09:01:09;19.20;82.30
71188;DHT22;58893;53.130;8.158;2022-10-30T09:03:34;19.30;82.60
71188;DHT22;58893;53.130;8.158;2022-10-30T09:06:00;19.20;82.00
71188;DHT22;58893;53.130;8.158;2022-10-30T09:08:27;19.20;81.50
71188;DHT22;58893;53.130;8.158;2022-10-30T09:10:56;19.20;81.30
71188;DHT22;58893;53.130;8.158;2022-10-30T09:13:22;19.20;81.60
71188;DHT22;58893;53.130;8.158;2022-10-30T09:15:48;19.20;81.90
71188;DHT22;58893;53.130;8.158;2022-10-30T09:18:13;19.10;81.80
71188;DHT22;58893;53.130;8.158;2022-10-30T09:20:39;19.10;81.70
71188;DHT22;58893;53.130;8.158;2022-10-30T09:23:04;19.10;81.70
71188;DHT22;58893;53.130;8.158;2022-10-30T09:25:30;19.10;81.70
71188;DHT22;58893;53.130;8.158;2022-10-30T09:27:56;19.10;81.70
71188;DHT22;58893;53.130;8.158;2022-10-30T09:30:21;19.10;81.70
71188;DHT22;58893;53.130;8.158;2022-10-30T09:32:54;19.10;81.90
71188;DHT22;58893;53.130;8.158;2022-10-30T09:35:20;19.10;82.10
71188;DHT22;58893;53.130;8.158;2022-10-30T09:37:45;19.10;82.40
71188;DHT22;58893;53.130;8.158;2022-10-30T09:49:02;19.10;83.10
71188;DHT22;58893;53.130;8.158;2022-10-30T09:51:33;19.10;83.20
71188;DHT22;58893;53.130;8.158;2022-10-30T10:05:20;19.10;84.20
71188;DHT22;58893;53.130;8.158;2022-10-30T10:07:49;19.00;84.30
71188;DHT22;58893;53.130;8.158;2022-10-30T10:10:21;19.00;84.50
71188;DHT22;58893;53.130;8.158;2022-10-30T10:12:51;19.10;85.00
71188;DHT22;58893;53.130;8.158;2022-10-30T10:15:38;19.10;85.30
71188;DHT22;58893;53.130;8.158;2022-10-30T10:18:17;19.10;85.60
71188;DHT22;58893;53.130;8.158;2022-10-30T10:20:46;19.10;85.80
71188;DHT22;58893;53.130;8.158;2022-10-30T10:23:32;19.10;86.50
71188;DHT22;58893;53.130;8.158;2022-10-30T10:26:09;19.10;85.90
71188;DHT22;58893;53.130;8.158;2022-10-30T10:28:55;19.10;86.00
71188;DHT22;58893;53.130;8.158;2022-10-30T10:34:44;19.20;86.60
71188;DHT22;58893;53.130;8.158;2022-10-30T10:45:58;19.30;87.00
71188;DHT22;58893;53.130;8.158;2022-10-30T10:51:12;19.30;87.00
71188;DHT22;58893;53.130;8.158;2022-10-30T10:53:48;19.30;87.20
71188;DHT22;58893;53.130;8.158;2022-10-30T10:56:17;19.30;87.30
71188;DHT22;58893;53.130;8.158;2022-10-30T10:58:50;19.30;87.20
71188;DHT22;58893;53.130;8.158;2022-10-30T11:01:34;19.40;87.30
71188;DHT22;58893;53.130;8.158;2022-10-30T11:04:11;19.40;87.30
71188;DHT22;58893;53.130;8.158;2022-10-30T11:06:41;19.40;87.40
71188;DHT22;58893;53.130;8.158;2022-10-30T11:09:19;19.40;87.40
71188;DHT22;58893;53.130;8.158;2022-10-30T11:11:49;19.40;87.30
71188;DHT22;58893;53.130;8.158;2022-10-30T11:14:37;19.50;87.20
71188;DHT22;58893;53.130;8.158;2022-10-30T11:17:21;19.50;86.90
71188;DHT22;58893;53.130;8.158;2022-10-30T11:19:50;19.50;86.80
71188;DHT22;58893;53.130;8.158;2022-10-30T11:22:33;19.50;86.70
71188;DHT22;58893;53.130;8.158;2022-10-30T11:25:25;19.60;86.90
71188;DHT22;58893;53.130;8.158;2022-10-30T11:27:59;19.60;86.90
71188;DHT22;58893;53.130;8.158;2022-10-30T11:30:26;19.60;87.00
71188;DHT22;58893;53.130;8.158;2022-10-30T11:32:53;19.60;86.90
71188;DHT22;58893;53.130;8.158;2022-10-30T11:35:20;19.60;86.90
71188;DHT22;58893;53.130;8.158;2022-10-30T11:38:11;19.60;86.90
71188;DHT22;58893;53.130;8.158;2022-10-30T11:40:35;19.70;87.00
71188;DHT22;58893;53.130;8.158;2022-10-30T11:43:03;19.70;86.80
71188;DHT22;58893;53.130;8.158;2022-10-30T11:45:40;19.70;86.80
71188;DHT22;58893;53.130;8.158;2022-10-30T11:48:22;19.70;86.90
71188;DHT22;58893;53.130;8.158;2022-10-30T11:50:51;19.70;87.10
71188;DHT22;58893;53.130;8.158;2022-10-30T11:53:23;19.80;87.50
71188;DHT22;58893;53.130;8.158;2022-10-30T11:55:50;19.80;87.80
71188;DHT22;58893;53.130;8.158;2022-10-30T11:58:23;19.80;87.80
71188;DHT22;58893;53.130;8.158;2022-10-30T12:01:06;19.80;87.70
71188;DHT22;58893;53.130;8.158;2022-10-30T12:03:37;19.90;87.60
71188;DHT22;58893;53.130;8.158;2022-10-30T12:06:19;19.90;87.20
71188;DHT22;58893;53.130;8.158;2022-10-30T12:09:14;19.90;87.00
71188;DHT22;58893;53.130;8.158;2022-10-30T12:11:44;20.00;86.90
71188;DHT22;58893;53.130;8.158;2022-10-30T12:14:20;20.00;86.70
71188;DHT22;58893;53.130;8.158;2022-10-30T12:16:49;20.00;86.60
71188;DHT22;58893;53.130;8.158;2022-10-30T12:19:15;20.00;86.60
71188;DHT22;58893;53.130;8.158;2022-10-30T12:21:45;20.00;86.70
71188;DHT22;58893;53.130;8.158;2022-10-30T12:24:16;20.10;86.60
71188;DHT22;58893;53.130;8.158;2022-10-30T12:26:49;20.10;86.40
71188;DHT22;58893;53.130;8.158;2022-10-30T12:29:17;20.10;86.20
71188;DHT22;58893;53.130;8.158;2022-10-30T12:31:54;20.10;85.80
71188;DHT22;58893;53.130;8.158;2022-10-30T12:34:43;20.20;85.40
71188;DHT22;58893;53.130;8.158;2022-10-30T12:37:23;20.20;84.90
71188;DHT22;58893;53.130;8.158;2022-10-30T12:42:31;20.20;84.60
71188;DHT22;58893;53.130;8.158;2022-10-30T12:45:18;20.20;85.20
71188;DHT22;58893;53.130;8.158;2022-10-30T12:50:26;20.20;85.00
71188;DHT22;58893;53.130;8.158;2022-10-30T12:55:48;20.30;85.50
71188;DHT22;58893;53.130;8.158;2022-10-30T12:58:30;20.30;85.70
71188;DHT22;58893;53.130;8.158;2022-10-30T13:03:47;20.30;86.10
71188;DHT22;58893;53.130;8.158;2022-10-30T13:06:15;20.30;86.20
71188;DHT22;58893;53.130;8.158;2022-10-30T13:11:39;20.30;86.40
71188;DHT22;58893;53.130;8.158;2022-10-30T13:14:19;20.30;86.20
71188;DHT22;58893;53.130;8.158;2022-10-30T13:16:45;20.30;85.90
71188;DHT22;58893;53.130;8.158;2022-10-30T13:19:11;20.30;85.60
71188;DHT22;58893;53.130;8.158;2022-10-30T13:24:26;20.30;85.50
71188;DHT22;58893;53.130;8.158;2022-10-30T13:27:14;20.30;85.70
71188;DHT22;58893;53.130;8.158;2022-10-30T13:32:40;20.30;85.90
71188;DHT22;58893;53.130;8.158;2022-10-30T13:40:56;20.30;86.40
71188;DHT22;58893;53.130;8.158;2022-10-30T13:56:40;20.30;87.60
71188;DHT22;58893;53.130;8.158;2022-10-30T14:02:13;20.40;87.00
71188;DHT22;58893;53.130;8.158;2022-10-30T14:04:49;20.40;86.70
71188;DHT22;58893;53.130;8.158;2022-10-30T14:10:03;20.40;86.90
71188;DHT22;58893;53.130;8.158;2022-10-30T14:28:43;20.30;88.10
71188;DHT22;58893;53.130;8.158;2022-10-30T14:31:11;20.30;88.00
71188;DHT22;58893;53.130;8.158;2022-10-30T14:33:50;20.30;88.00
71188;DHT22;58893;53.130;8.158;2022-10-30T14:36:24;20.30;88.20
71188;DHT22;58893;53.130;8.158;2022-10-30T14:49:31;20.30;90.10
71188;DHT22;58893;53.130;8.158;2022-10-30T14:52:51;20.30;90.30
71188;DHT22;58893;53.130;8.158;2022-10-30T14:55:24;20.20;90.30
71188;DHT22;58893;53.130;8.158;2022-10-30T15:00:29;20.20;90.30
71188;DHT22;58893;53.130;8.158;2022-10-30T15:05:56;20.20;90.60
71188;DHT22;58893;53.130;8.158;2022-10-30T15:08:54;20.20;90.20
71188;DHT22;58893;53.130;8.158;2022-10-30T15:16:49;20.10;90.10
71188;DHT22;58893;53.130;8.158;2022-10-30T15:19:17;20.10;90.10
71188;DHT22;58893;53.130;8.158;2022-10-30T15:21:47;20.00;90.10
71188;DHT22;58893;53.130;8.158;2022-10-30T15:24:16;20.00;90.10
71188;DHT22;58893;53.130;8.158;2022-10-30T15:26:47;20.00;90.20
71188;DHT22;58893;53.130;8.158;2022-10-30T15:29:19;20.00;90.20
71188;DHT22;58893;53.130;8.158;2022-10-30T15:32:17;20.00;90.30
71188;DHT22;58893;53.130;8.158;2022-10-30T15:37:20;19.90;90.50
71188;DHT22;58893;53.130;8.158;2022-10-30T15:39:46;19.90;90.60
71188;DHT22;58893;53.130;8.158;2022-10-30T15:42:12;19.80;90.50
71188;DHT22;58893;53.130;8.158;2022-10-30T15:44:43;19.80;90.60
71188;DHT22;58893;53.130;8.158;2022-10-30T15:47:15;19.80;90.60
71188;DHT22;58893;53.130;8.158;2022-10-30T15:49:49;19.80;90.60
71188;DHT22;58893;53.130;8.158;2022-10-30T15:52:27;19.70;90.90
71188;DHT22;58893;53.130;8.158;2022-10-30T15:55:07;19.70;90.60
71188;DHT22;58893;53.130;8.158;2022-10-30T15:57:41;19.70;90.70
71188;DHT22;58893;53.130;8.158;2022-10-30T16:00:22;19.70;90.70
71188;DHT22;58893;53.130;8.158;2022-10-30T16:02:58;19.70;90.80
71188;DHT22;58893;53.130;8.158;2022-10-30T16:05:24;19.60;90.80
71188;DHT22;58893;53.130;8.158;2022-10-30T16:07:54;19.60;90.90
71188;DHT22;58893;53.130;8.158;2022-10-30T16:10:22;19.50;90.90
71188;DHT22;58893;53.130;8.158;2022-10-30T16:12:48;19.50;91.00
71188;DHT22;58893;53.130;8.158;2022-10-30T16:15:24;19.50;91.00
71188;DHT22;58893;53.130;8.158;2022-10-30T16:18:13;19.50;91.10
71188;DHT22;58893;53.130;8.158;2022-10-30T16:20:42;19.40;91.10
71188;DHT22;58893;53.130;8.158;2022-10-30T16:23:08;19.40;91.10
71188;DHT22;58893;53.130;8.158;2022-10-30T16:25:34;19.30;91.00
71188;DHT22;58893;53.130;8.158;2022-10-30T16:28:03;19.30;91.00
71188;DHT22;58893;53.130;8.158;2022-10-30T16:30:30;19.30;91.00
71188;DHT22;58893;53.130;8.158;2022-10-30T16:32:57;19.30;91.10
71188;DHT22;58893;53.130;8.158;2022-10-30T16:35:23;19.20;91.10
71188;DHT22;58893;53.130;8.158;2022-10-30T16:37:49;19.20;91.10
71188;DHT22;58893;53.130;8.158;2022-10-30T16:40:25;19.20;91.10
71188;DHT22;58893;53.130;8.158;2022-10-30T16:42:55;19.20;91.10
71188;DHT22;58893;53.130;8.158;2022-10-30T16:47:53;19.10;91.00
71188;DHT22;58893;53.130;8.158;2022-10-30T16:50:33;19.10;91.10
71188;DHT22;58893;53.130;8.158;2022-10-30T16:53:25;19.10;91.10
71188;DHT22;58893;53.130;8.158;2022-10-30T16:55:51;19.00;91.00
71188;DHT22;58893;53.130;8.158;2022-10-30T16:58:19;19.00;91.10
71188;DHT22;58893;53.130;8.158;2022-10-30T17:00:53;19.00;91.10
71188;DHT22;58893;53.130;8.158;2022-10-30T17:03:22;18.90;91.10
71188;DHT22;58893;53.130;8.158;2022-10-30T17:08:51;18.90;91.10
71188;DHT22;58893;53.130;8.158;2022-10-30T17:11:19;18.80;91.00
71188;DHT22;58893;53.130;8.158;2022-10-30T17:13:59;18.80;91.00
71188;DHT22;58893;53.130;8.158;2022-10-30T17:16:31;18.80;91.00
71188;DHT22;58893;53.130;8.158;2022-10-30T17:18:59;18.70;90.90
71188;DHT22;58893;53.130;8.158;2022-10-30T17:21:40;18.80;90.80
71188;DHT22;58893;53.130;8.158;2022-10-30T17:24:24;18.70;90.80
71188;DHT22;58893;53.130;8.158;2022-10-30T17:27:02;18.70;90.80
71188;DHT22;58893;53.130;8.158;2022-10-30T17:34:41;18.60;90.50
71188;DHT22;58893;53.130;8.158;2022-10-30T17:37:06;18.60;90.40
71188;DHT22;58893;53.130;8.158;2022-10-30T17:39:32;18.50;90.30
71188;DHT22;58893;53.130;8.158;2022-10-30T17:41:58;18.50;90.30
71188;DHT22;58893;53.130;8.158;2022-10-30T17:44:24;18.50;90.30
71188;DHT22;58893;53.130;8.158;2022-10-30T17:46:50;18.50;90.20
71188;DHT22;58893;53.130;8.158;2022-10-30T17:49:31;18.40;90.30
71188;DHT22;58893;53.130;8.158;2022-10-30T17:51:57;18.40;90.30
71188;DHT22;58893;53.130;8.158;2022-10-30T17:54:24;18.40;90.30
71188;DHT22;58893;53.130;8.158;2022-10-30T17:56:50;18.30;90.30
71188;DHT22;58893;53.130;8.158;2022-10-30T17:59:16;18.30;90.40
71188;DHT22;58893;53.130;8.158;2022-10-30T18:01:41;18.30;90.40
71188;DHT22;58893;53.130;8.158;2022-10-30T18:04:17;18.30;90.40
71188;DHT22;58893;53.130;8.158;2022-10-30T18:06:43;18.20;90.30
71188;DHT22;58893;53.130;8.158;2022-10-30T18:09:09;18.30;90.40
71188;DHT22;58893;53.130;8.158;2022-10-30T18:11:36;18.20;90.30
71188;DHT22;58893;53.130;8.158;2022-10-30T18:14:02;18.20;90.30
71188;DHT22;58893;53.130;8.158;2022-10-30T18:16:28;18.20;90.30
71188;DHT22;58893;53.130;8.158;2022-10-30T18:18:54;18.20;90.30
71188;DHT22;58893;53.130;8.158;2022-10-30T18:21:21;18.10;90.20
71188;DHT22;58893;53.130;8.158;2022-10-30T18:23:48;18.10;90.20